Darstellungsparameter: Aktuell verwendete Einstellungen:
Skalierung der Graphiken ... ?
xyx+y,   Skalierungsfaktor:      Skalierung: Modus: x, Faktor: 1
Darstellungszeitraum ... ?
Vom - - bis: - -   Zeitraum: 14.02.2016 - 14.02.2016
Min/Max/Avg-Anzeige ... ?
Zeige MMA aktuell
Zeige MMA Monat
Zeige MMA alles
Zeige --A aktuell
Zeige --A Monat
Zeige --A alles
Keine MMA-Anzeige
MMA:
Keine MMA-Graphiken
MMA-Basis: 14.02.2016 - 14.02.2016
Quicknavigation für Darstellung... ?
Tage:      1T, 2T, 3T, 5T -1T -2T -3T -5T +1T +2T +3T +5T
Wochen: 1W, 2W, 3W -1W -2W -3W +1W +2W +3W
Monate: 1M, 3M, 6M -1M -3M -6M +1M +3M +6M
Jahre:    1J, 3J, 5J, 10J -1J -3J -5J -10J +1J +3J +5J +10J
Nutze für die Darstellung ... ?
Originaldaten oder Mittelwerte auf ...
Stundenbasis Tagesbasis Wochenbasis
Monatsbasis Jahresbasis      Datenbasis: Original-Daten
Darstellen als:
Statistik (Auto) Statistik J:M      Darstellung:
Zur Graphik,    zurück zur Übersicht aller Sensoren.
 
Tabellarische Datenbersicht: ?
 
Sensor: Nr:Datum:Temp:Feuchte:Taupunkt:
Aussen-T/F 1 14-02-2016 00:00:00 3.8 C 97 % 3.37 C
2 14-02-2016 00:05:00 3.9 C 97 % 3.47 C
3 14-02-2016 00:10:00 3.9 C 97 % 3.47 C
4 14-02-2016 00:15:00 3.9 C 97 % 3.47 C
5 14-02-2016 00:20:00 3.9 C 97 % 3.47 C
6 14-02-2016 00:25:00 3.9 C 97 % 3.47 C
7 14-02-2016 00:30:00 3.9 C 97 % 3.47 C
8 14-02-2016 00:35:00 4 C 97 % 3.57 C
9 14-02-2016 00:40:00 4 C 97 % 3.57 C
10 14-02-2016 00:45:00 4 C 97 % 3.57 C
11 14-02-2016 00:50:00 4 C 97 % 3.57 C
12 14-02-2016 00:55:00 4 C 97 % 3.57 C
13 14-02-2016 01:00:00 4 C 97 % 3.57 C
14 14-02-2016 01:05:00 4 C 97 % 3.57 C
15 14-02-2016 01:10:00 4.1 C 97 % 3.67 C
16 14-02-2016 01:15:00 4.1 C 97 % 3.67 C
17 14-02-2016 01:20:00 4.1 C 97 % 3.67 C
18 14-02-2016 01:25:00 4.1 C 97 % 3.67 C
19 14-02-2016 01:30:00 4.1 C 97 % 3.67 C
20 14-02-2016 01:35:00 4.1 C 97 % 3.67 C
21 14-02-2016 01:40:00 4.1 C 97 % 3.67 C
22 14-02-2016 01:45:00 4.1 C 97 % 3.67 C
23 14-02-2016 01:50:00 4.1 C 97 % 3.67 C
24 14-02-2016 01:55:00 4.1 C 97 % 3.67 C
25 14-02-2016 02:00:00 4.1 C 97 % 3.67 C
Sensor: Nr:Datum:Temp:Feuchte:Taupunkt:
Aussen-T/F 26 14-02-2016 02:05:00 4.1 C 97 % 3.67 C
27 14-02-2016 02:10:00 4.1 C 97 % 3.67 C
28 14-02-2016 02:15:00 4.1 C 97 % 3.67 C
29 14-02-2016 02:20:00 4.1 C 97 % 3.67 C
30 14-02-2016 02:25:00 4.1 C 97 % 3.67 C
31 14-02-2016 02:30:00 4.1 C 97 % 3.67 C
32 14-02-2016 02:35:00 4.1 C 97 % 3.67 C
33 14-02-2016 02:40:00 4.1 C 97 % 3.67 C
34 14-02-2016 02:45:00 4.1 C 97 % 3.67 C
35 14-02-2016 02:50:00 4.2 C 97 % 3.77 C
36 14-02-2016 02:55:00 4.2 C 97 % 3.77 C
37 14-02-2016 03:00:00 4.2 C 97 % 3.77 C
38 14-02-2016 03:05:00 4.2 C 97 % 3.77 C
39 14-02-2016 03:10:00 4.3 C 97 % 3.87 C
40 14-02-2016 03:15:00 4.3 C 97 % 3.87 C
41 14-02-2016 03:20:00 4.3 C 97 % 3.87 C
42 14-02-2016 03:25:00 4.3 C 97 % 3.87 C
43 14-02-2016 03:30:00 4.3 C 97 % 3.87 C
44 14-02-2016 03:35:00 4.3 C 97 % 3.87 C
45 14-02-2016 03:40:00 4.3 C 97 % 3.87 C
46 14-02-2016 03:45:00 4.2 C 97 % 3.77 C
47 14-02-2016 03:50:00 4.2 C 97 % 3.77 C
48 14-02-2016 03:55:00 4.2 C 97 % 3.77 C
49 14-02-2016 04:00:00 4.2 C 97 % 3.77 C
50 14-02-2016 04:05:00 4.2 C 97 % 3.77 C
Sensor: Nr:Datum:Temp:Feuchte:Taupunkt:
Aussen-T/F 51 14-02-2016 04:10:00 4.2 C 97 % 3.77 C
52 14-02-2016 04:15:00 4.2 C 97 % 3.77 C
53 14-02-2016 04:20:00 4.2 C 97 % 3.77 C
54 14-02-2016 04:25:00 4.2 C 97 % 3.77 C
55 14-02-2016 04:30:00 4.1 C 97 % 3.67 C
56 14-02-2016 04:35:00 4.1 C 97 % 3.67 C
57 14-02-2016 04:40:00 4.1 C 97 % 3.67 C
58 14-02-2016 04:45:00 4.2 C 97 % 3.77 C
59 14-02-2016 04:50:00 4.2 C 97 % 3.77 C
60 14-02-2016 04:55:00 4.2 C 97 % 3.77 C
61 14-02-2016 05:00:00 4.2 C 97 % 3.77 C
62 14-02-2016 05:05:00 4.3 C 97 % 3.87 C
63 14-02-2016 05:10:00 4.3 C 97 % 3.87 C
64 14-02-2016 05:15:00 4.3 C 97 % 3.87 C
65 14-02-2016 05:20:00 4.4 C 97 % 3.97 C
66 14-02-2016 05:25:00 4.4 C 97 % 3.97 C
67 14-02-2016 05:30:00 4.6 C 97 % 4.17 C
68 14-02-2016 05:35:00 4.6 C 97 % 4.17 C
69 14-02-2016 05:40:00 4.7 C 97 % 4.27 C
70 14-02-2016 05:45:00 4.7 C 97 % 4.27 C
71 14-02-2016 05:50:00 4.7 C 97 % 4.27 C
72 14-02-2016 05:55:00 4.7 C 97 % 4.27 C
73 14-02-2016 06:00:00 4.7 C 97 % 4.27 C
74 14-02-2016 06:05:00 4.7 C 97 % 4.27 C
75 14-02-2016 06:10:00 4.6 C 97 % 4.17 C
Sensor: Nr:Datum:Temp:Feuchte:Taupunkt:
Aussen-T/F 76 14-02-2016 06:15:00 4.6 C 97 % 4.17 C
77 14-02-2016 06:20:00 4.6 C 97 % 4.17 C
78 14-02-2016 06:25:00 4.6 C 97 % 4.17 C
79 14-02-2016 06:30:00 4.7 C 97 % 4.27 C
80 14-02-2016 06:35:00 4.8 C 97 % 4.37 C
81 14-02-2016 06:40:00 4.8 C 97 % 4.37 C
82 14-02-2016 06:45:00 4.8 C 97 % 4.37 C
83 14-02-2016 06:50:00 4.8 C 97 % 4.37 C
84 14-02-2016 06:55:00 4.8 C 97 % 4.37 C
85 14-02-2016 07:00:00 4.7 C 97 % 4.27 C
86 14-02-2016 07:05:00 4.7 C 97 % 4.27 C
87 14-02-2016 07:10:00 4.7 C 97 % 4.27 C
88 14-02-2016 07:15:00 4.7 C 97 % 4.27 C
89 14-02-2016 07:20:00 4.7 C 97 % 4.27 C
90 14-02-2016 07:25:00 4.7 C 97 % 4.27 C
91 14-02-2016 07:30:00 4.8 C 97 % 4.37 C
92 14-02-2016 07:35:00 4.8 C 97 % 4.37 C
93 14-02-2016 07:40:00 4.8 C 97 % 4.37 C
94 14-02-2016 07:45:00 4.8 C 97 % 4.37 C
95 14-02-2016 07:50:00 4.8 C 97 % 4.37 C
96 14-02-2016 07:55:00 4.8 C 97 % 4.37 C
97 14-02-2016 08:00:00 4.9 C 97 % 4.46 C
98 14-02-2016 08:05:00 4.9 C 97 % 4.46 C
99 14-02-2016 08:10:00 4.9 C 97 % 4.46 C
100 14-02-2016 08:15:00 4.9 C 97 % 4.46 C
Sensor: Nr:Datum:Temp:Feuchte:Taupunkt:
Aussen-T/F 101 14-02-2016 08:20:00 4.9 C 97 % 4.46 C
102 14-02-2016 08:25:00 4.9 C 97 % 4.46 C
103 14-02-2016 08:30:00 4.9 C 97 % 4.46 C
104 14-02-2016 08:35:00 4.9 C 97 % 4.46 C
105 14-02-2016 08:40:00 4.9 C 97 % 4.46 C
106 14-02-2016 08:45:00 4.9 C 97 % 4.46 C
107 14-02-2016 08:50:00 4.9 C 97 % 4.46 C
108 14-02-2016 08:55:00 4.9 C 97 % 4.46 C
109 14-02-2016 09:00:00 4.9 C 97 % 4.46 C
110 14-02-2016 09:05:00 5 C 97 % 4.56 C
111 14-02-2016 09:10:00 5 C 97 % 4.56 C
112 14-02-2016 09:15:00 5.1 C 97 % 4.66 C
113 14-02-2016 09:20:00 5.1 C 97 % 4.66 C
114 14-02-2016 09:25:00 5.2 C 97 % 4.76 C
115 14-02-2016 09:30:00 5.2 C 97 % 4.76 C
116 14-02-2016 09:35:00 5.3 C 97 % 4.86 C
117 14-02-2016 09:40:00 5.3 C 97 % 4.86 C
118 14-02-2016 09:45:00 5.4 C 97 % 4.96 C
119 14-02-2016 09:50:00 5.4 C 97 % 4.96 C
120 14-02-2016 09:55:00 5.4 C 97 % 4.96 C
121 14-02-2016 10:00:00 5.4 C 97 % 4.96 C
122 14-02-2016 10:05:00 5.4 C 97 % 4.96 C
123 14-02-2016 10:10:00 5.3 C 97 % 4.86 C
124 14-02-2016 10:15:00 5.2 C 97 % 4.76 C
125 14-02-2016 10:20:00 5.2 C 97 % 4.76 C
Sensor: Nr:Datum:Temp:Feuchte:Taupunkt:
Aussen-T/F 126 14-02-2016 10:25:00 5.1 C 97 % 4.66 C
127 14-02-2016 10:30:00 5 C 97 % 4.56 C
128 14-02-2016 10:35:00 5 C 97 % 4.56 C
129 14-02-2016 10:40:00 5 C 97 % 4.56 C
130 14-02-2016 10:45:00 4.9 C 97 % 4.46 C
131 14-02-2016 10:50:00 4.9 C 97 % 4.46 C
132 14-02-2016 10:55:00 5 C 97 % 4.56 C
133 14-02-2016 11:00:00 5.1 C 97 % 4.66 C
134 14-02-2016 11:05:00 5.1 C 97 % 4.66 C
135 14-02-2016 11:10:00 5.3 C 97 % 4.86 C
136 14-02-2016 11:15:00 5.2 C 97 % 4.76 C
137 14-02-2016 11:20:00 5.3 C 97 % 4.86 C
138 14-02-2016 11:25:00 5.3 C 97 % 4.86 C
139 14-02-2016 11:30:00 5.4 C 97 % 4.96 C
140 14-02-2016 11:35:00 5.5 C 97 % 5.06 C
141 14-02-2016 11:40:00 5.6 C 97 % 5.16 C
142 14-02-2016 11:45:00 5.6 C 97 % 5.16 C
143 14-02-2016 11:50:00 5.6 C 96 % 5.01 C
144 14-02-2016 11:55:00 5.6 C 96 % 5.01 C
145 14-02-2016 12:00:00 5.6 C 96 % 5.01 C
146 14-02-2016 12:05:00 5.6 C 96 % 5.01 C
147 14-02-2016 12:10:00 5.6 C 95 % 4.86 C
148 14-02-2016 12:15:00 5.6 C 95 % 4.86 C
149 14-02-2016 12:20:00 5.6 C 95 % 4.86 C
150 14-02-2016 12:25:00 5.6 C 95 % 4.86 C
Sensor: Nr:Datum:Temp:Feuchte:Taupunkt:
Aussen-T/F 151 14-02-2016 12:30:00 5.6 C 95 % 4.86 C
152 14-02-2016 12:35:00 5.6 C 95 % 4.86 C
153 14-02-2016 12:40:00 5.6 C 94 % 4.71 C
154 14-02-2016 12:45:00 5.5 C 93 % 4.46 C
155 14-02-2016 12:50:00 5.6 C 94 % 4.71 C
156 14-02-2016 12:55:00 5.6 C 93 % 4.56 C
157 14-02-2016 13:00:00 5.7 C 93 % 4.66 C
158 14-02-2016 13:05:00 5.7 C 91 % 4.35 C
159 14-02-2016 13:10:00 5.7 C 90 % 4.19 C
160 14-02-2016 13:15:00 5.7 C 89 % 4.03 C
161 14-02-2016 13:20:00 5.7 C 87 % 3.71 C
162 14-02-2016 13:25:00 5.7 C 88 % 3.87 C
163 14-02-2016 13:30:00 5.7 C 87 % 3.71 C
164 14-02-2016 13:35:00 5.7 C 87 % 3.71 C
165 14-02-2016 13:40:00 5.7 C 87 % 3.71 C
166 14-02-2016 13:45:00 5.7 C 88 % 3.87 C
167 14-02-2016 13:50:00 5.8 C 90 % 4.29 C
168 14-02-2016 13:55:00 5.8 C 91 % 4.45 C
169 14-02-2016 14:00:00 5.7 C 91 % 4.35 C
170 14-02-2016 14:05:00 5.6 C 91 % 4.25 C
171 14-02-2016 14:10:00 5.6 C 91 % 4.25 C
172 14-02-2016 14:15:00 5.6 C 91 % 4.25 C
173 14-02-2016 14:20:00 5.6 C 91 % 4.25 C
174 14-02-2016 14:25:00 5.6 C 92 % 4.41 C
175 14-02-2016 14:30:00 5.5 C 91 % 4.15 C
Sensor: Nr:Datum:Temp:Feuchte:Taupunkt:
Aussen-T/F 176 14-02-2016 14:35:00 5.4 C 91 % 4.05 C
177 14-02-2016 14:40:00 5.4 C 91 % 4.05 C
178 14-02-2016 14:45:00 5.4 C 90 % 3.89 C
179 14-02-2016 14:50:00 5.4 C 90 % 3.89 C
180 14-02-2016 14:55:00 5.4 C 90 % 3.89 C
181 14-02-2016 15:00:00 5.4 C 89 % 3.74 C
182 14-02-2016 15:05:00 5.4 C 89 % 3.74 C
183 14-02-2016 15:10:00 5.4 C 89 % 3.74 C
184 14-02-2016 15:15:00 5.5 C 89 % 3.84 C
185 14-02-2016 15:20:00 5.5 C 88 % 3.67 C
186 14-02-2016 15:25:00 5.5 C 88 % 3.67 C
187 14-02-2016 15:30:00 5.5 C 87 % 3.51 C
188 14-02-2016 15:35:00 5.6 C 87 % 3.61 C
189 14-02-2016 15:40:00 5.6 C 88 % 3.77 C
190 14-02-2016 15:45:00 5.5 C 88 % 3.67 C
191 14-02-2016 15:50:00 5.5 C 89 % 3.84 C
192 14-02-2016 15:55:00 5.4 C 89 % 3.74 C
193 14-02-2016 16:00:00 5.4 C 89 % 3.74 C
194 14-02-2016 16:05:00 5.4 C 90 % 3.89 C
195 14-02-2016 16:10:00 5.3 C 90 % 3.8 C
196 14-02-2016 16:15:00 5.3 C 90 % 3.8 C
197 14-02-2016 16:20:00 5.3 C 90 % 3.8 C
198 14-02-2016 16:25:00 5.3 C 91 % 3.95 C
199 14-02-2016 16:30:00 5.3 C 91 % 3.95 C
200 14-02-2016 16:35:00 5.2 C 91 % 3.85 C
Sensor: Nr:Datum:Temp:Feuchte:Taupunkt:
Aussen-T/F 201 14-02-2016 16:40:00 5.2 C 92 % 4.01 C
202 14-02-2016 16:45:00 5.1 C 92 % 3.91 C
203 14-02-2016 16:50:00 5.1 C 92 % 3.91 C
204 14-02-2016 16:55:00 5 C 92 % 3.81 C
205 14-02-2016 17:00:00 4.9 C 92 % 3.71 C
206 14-02-2016 17:05:00 4.9 C 92 % 3.71 C
207 14-02-2016 17:10:00 4.9 C 93 % 3.87 C
208 14-02-2016 17:15:00 4.8 C 93 % 3.77 C
209 14-02-2016 17:20:00 4.8 C 93 % 3.77 C
210 14-02-2016 17:25:00 4.8 C 93 % 3.77 C
211 14-02-2016 17:30:00 4.7 C 93 % 3.67 C
212 14-02-2016 17:35:00 4.7 C 93 % 3.67 C
213 14-02-2016 17:40:00 4.6 C 94 % 3.72 C
214 14-02-2016 17:45:00 4.6 C 94 % 3.72 C
215 14-02-2016 17:50:00 4.6 C 94 % 3.72 C
216 14-02-2016 17:55:00 4.6 C 94 % 3.72 C
217 14-02-2016 18:00:00 4.5 C 94 % 3.62 C
218 14-02-2016 18:05:00 4.5 C 94 % 3.62 C
219 14-02-2016 18:10:00 4.5 C 94 % 3.62 C
220 14-02-2016 18:15:00 4.4 C 94 % 3.52 C
221 14-02-2016 18:20:00 4.4 C 94 % 3.52 C
222 14-02-2016 18:25:00 4.4 C 94 % 3.52 C
223 14-02-2016 18:30:00 4.4 C 94 % 3.52 C
224 14-02-2016 18:35:00 4.4 C 94 % 3.52 C
225 14-02-2016 18:40:00 4.4 C 94 % 3.52 C
Sensor: Nr:Datum:Temp:Feuchte:Taupunkt:
Aussen-T/F 226 14-02-2016 18:45:00 4.4 C 94 % 3.52 C
227 14-02-2016 18:50:00 4.4 C 94 % 3.52 C
228 14-02-2016 18:55:00 4.5 C 94 % 3.62 C
229 14-02-2016 19:00:00 4.5 C 94 % 3.62 C
230 14-02-2016 19:05:00 4.5 C 94 % 3.62 C
231 14-02-2016 19:10:00 4.5 C 94 % 3.62 C
232 14-02-2016 19:15:00 4.5 C 94 % 3.62 C
233 14-02-2016 19:20:00 4.5 C 94 % 3.62 C
234 14-02-2016 19:25:00 4.4 C 95 % 3.67 C
235 14-02-2016 19:30:00 4.4 C 94 % 3.52 C
236 14-02-2016 19:35:00 4.4 C 94 % 3.52 C
237 14-02-2016 19:40:00 4.3 C 95 % 3.57 C
238 14-02-2016 19:45:00 4.3 C 95 % 3.57 C
239 14-02-2016 19:50:00 4.2 C 95 % 3.47 C
240 14-02-2016 19:55:00 4.2 C 95 % 3.47 C
241 14-02-2016 20:00:00 4.2 C 95 % 3.47 C
242 14-02-2016 20:05:00 4.2 C 95 % 3.47 C
243 14-02-2016 20:10:00 4.2 C 95 % 3.47 C
244 14-02-2016 20:15:00 4.2 C 95 % 3.47 C
245 14-02-2016 20:20:00 4.1 C 95 % 3.37 C
246 14-02-2016 20:25:00 4.1 C 95 % 3.37 C
247 14-02-2016 20:30:00 4.1 C 95 % 3.37 C
248 14-02-2016 20:35:00 4.1 C 95 % 3.37 C
249 14-02-2016 20:40:00 4 C 95 % 3.27 C
250 14-02-2016 20:45:00 4 C 95 % 3.27 C
Sensor: Nr:Datum:Temp:Feuchte:Taupunkt:
Aussen-T/F 251 14-02-2016 20:50:00 3.9 C 95 % 3.17 C
252 14-02-2016 20:55:00 3.9 C 95 % 3.17 C
253 14-02-2016 21:00:00 3.9 C 96 % 3.32 C
254 14-02-2016 21:05:00 3.9 C 96 % 3.32 C
255 14-02-2016 21:10:00 3.9 C 96 % 3.32 C
256 14-02-2016 21:15:00 3.9 C 96 % 3.32 C
257 14-02-2016 21:20:00 3.9 C 96 % 3.32 C
258 14-02-2016 21:25:00 3.9 C 96 % 3.32 C
259 14-02-2016 21:30:00 3.9 C 96 % 3.32 C
260 14-02-2016 21:35:00 3.9 C 96 % 3.32 C
261 14-02-2016 21:40:00 3.9 C 96 % 3.32 C
262 14-02-2016 21:45:00 3.9 C 96 % 3.32 C
263 14-02-2016 21:50:00 3.9 C 96 % 3.32 C
264 14-02-2016 21:55:00 3.9 C 96 % 3.32 C
265 14-02-2016 22:00:00 3.9 C 96 % 3.32 C
266 14-02-2016 22:05:00 3.9 C 96 % 3.32 C
267 14-02-2016 22:10:00 3.9 C 96 % 3.32 C
268 14-02-2016 22:15:00 3.9 C 96 % 3.32 C
269 14-02-2016 22:20:00 3.9 C 96 % 3.32 C
270 14-02-2016 22:25:00 3.9 C 96 % 3.32 C
271 14-02-2016 22:30:00 3.9 C 96 % 3.32 C
272 14-02-2016 22:35:00 3.8 C 96 % 3.22 C
273 14-02-2016 22:40:00 3.8 C 96 % 3.22 C
274 14-02-2016 22:45:00 3.8 C 96 % 3.22 C
275 14-02-2016 22:50:00 3.7 C 95 % 2.98 C
Sensor: Nr:Datum:Temp:Feuchte:Taupunkt:
Aussen-T/F 276 14-02-2016 22:55:00 3.7 C 95 % 2.98 C
277 14-02-2016 23:00:00 3.7 C 95 % 2.98 C
278 14-02-2016 23:05:00 3.7 C 95 % 2.98 C
279 14-02-2016 23:10:00 3.6 C 95 % 2.88 C
280 14-02-2016 23:15:00 3.6 C 94 % 2.73 C
281 14-02-2016 23:20:00 3.6 C 94 % 2.73 C
282 14-02-2016 23:25:00 3.6 C 94 % 2.73 C
283 14-02-2016 23:30:00 3.5 C 94 % 2.63 C
284 14-02-2016 23:35:00 3.5 C 94 % 2.63 C
285 14-02-2016 23:40:00 3.5 C 93 % 2.48 C
286 14-02-2016 23:45:00 3.4 C 93 % 2.38 C
287 14-02-2016 23:50:00 3.4 C 93 % 2.38 C
288 14-02-2016 23:55:00 3.4 C 93 % 2.38 C

Legende:
   Min
   Max


Maximal/Minimal-Werte vom 14.02.2016 - 14.02.2016

Sensor Min Max Avg
Temp
(Aussen-T/F)
3.4 °C
14-02-2016  23:45:00
5.8 °C
14-02-2016  13:50:00
4.65 °C
Feuchte
(Aussen-T/F)
87 %
14-02-2016  13:20:00
97 %
14-02-2016  00:00:00
94.99 %
Taupunkt
(Aussen-T/F)
2.38 C
14-02-2016  23:45:00
5.16 C
14-02-2016  11:40:00
3.9 C

Die Daten stammen von einer Davis Vantage Pro 2 Wetter-Station und werden unter Linux mit der Software wview2wettercgi und aufbereitet. Alle Angaben erfolgen ohne Gewähr für ihre Vollständigkeit oder Richtigkeit.
Kontakt: Rainer Krienke krienke@uni-koblenz.de . Meine Webseiten an der Uni Koblenz oder privat.
Version: $Revision: 0.78 $